Airfield :
LOGIN :

Register | Disclaimer

   EN    FR    IT 

 










Legend :    VFR   Marginal VFR   IFR   Intensive IFR   Very Intensive IFR
Visi :
Ceiling :
>= 8 km
>= 3000ft
5 to 8 km
1000 to 3000 ft
1500m to 5 km
500 to 1000 ft
800 to 1500m
200 to 500 ft
< 800m
< 200 ft
Symbols :   Thunderstorms  Fog  Heavy snow  Heavy precipitations  Wind > 20 kt
SIGMETs :     Misc.  Thunderstorms  Icing  Turbulence  Mountain Waves  Volcanic Ashes







- Airport Elevation : 364 ft
- IATA code : FRA


EDDF - Frankfurt Int.

CURRENT METAR :
  • 191120Z 21006KT 9999 FEW008 SCT040 07/05 Q1021 NOSIG

EXPIRED METARs :
  • 191050Z 22005KT 9999 FEW023 SCT048 06/04 Q1021 NOSIG
  • 191020Z 21004KT 9999 -RA FEW023 SCT048 05/04 Q1021 NOSIG
  • 190950Z 15003KT 9999 -RA FEW025 OVC045 05/03 Q1020 NOSIG
  • 190920Z VRB01KT 9999 -RA SCT025 OVC038 04/03 Q1021 NOSIG
  • 190850Z 24003KT 9999 -RA BKN026 04/02 Q1020 NOSIG

TAF TAF EDDF
Valid from the 19 at 12:00 until the 20 at 18:00 UTC


191100Z 1912/2018 22008KT 9999 SCT025 BKN040
TEMPO 1915/2009 SCT035
BECMG 1917/1919 21003KT
PROB30
TEMPO 2005/2009 4000 BR
No reported NOTAMs for that airfield.



MET'MAP, your aeronautical weather chart ! - Copyright ORBIFLY December 2007 - Disclaimer

ORBIFLY MET'MAP TEAM :

Programming & Development : Alexandra Zaïnal
Concept & Development : Baudouin d'Aumeries
Co-Development & Prog : Marc-Olivier Méhu
Technical & hardware support : Manuel Goepfert

Contact : metmap@orbifly.com




SOURCES & CREDITS :

   NOAA